Terminal Aerodrome Forecast
Issued by NWS

Home | Current Version | Previous Version | Text Only | Print | Product List | Glossary On
Versions: 1 2 3 4 5 6 7 8 9 10 11 12 13 14 15 16 17 18 19 20 21
000
FTUS42 KTAE 201135 CCA
TAFVLD
TAF COR
KVLD 201135Z 2012/2112 00000KT 1SM BR OVC002
     FM201400 13005KT P6SM BKN015
     FM201600 12007KT P6SM OVC050
     FM210900 12004KT 4SM BR OVC025=

USA.gov is the U.S. government's official web portal to all federal, state and local government web resources and services.